sensor_id;sensor_type;location;lat;lon;timestamp;P1;durP1;ratioP1;P2;durP2;ratioP2
10805;SDS011;5455;53.224;6.000;2023-04-25T00:01:58;7.17;;;1.53;;
10805;SDS011;5455;53.224;6.000;2023-04-25T00:04:26;8.27;;;1.80;;
10805;SDS011;5455;53.224;6.000;2023-04-25T00:06:54;8.47;;;2.00;;
10805;SDS011;5455;53.224;6.000;2023-04-25T00:09:22;8.87;;;2.23;;
10805;SDS011;5455;53.224;6.000;2023-04-25T00:11:49;6.27;;;1.47;;
10805;SDS011;5455;53.224;6.000;2023-04-25T00:14:16;8.33;;;1.60;;
10805;SDS011;5455;53.224;6.000;2023-04-25T00:16:43;7.10;;;1.93;;
10805;SDS011;5455;53.224;6.000;2023-04-25T00:19:10;7.13;;;1.53;;
10805;SDS011;5455;53.224;6.000;2023-04-25T00:21:38;6.30;;;1.30;;
10805;SDS011;5455;53.224;6.000;2023-04-25T00:24:07;8.83;;;1.80;;
10805;SDS011;5455;53.224;6.000;2023-04-25T00:26:34;8.40;;;1.60;;
10805;SDS011;5455;53.224;6.000;2023-04-25T00:29:02;7.87;;;1.67;;
10805;SDS011;5455;53.224;6.000;2023-04-25T00:31:29;7.57;;;1.67;;
10805;SDS011;5455;53.224;6.000;2023-04-25T00:33:57;4.63;;;1.40;;
10805;SDS011;5455;53.224;6.000;2023-04-25T00:36:24;6.93;;;1.70;;
10805;SDS011;5455;53.224;6.000;2023-04-25T00:38:53;7.87;;;2.00;;
10805;SDS011;5455;53.224;6.000;2023-04-25T00:41:25;10.17;;;2.03;;
10805;SDS011;5455;53.224;6.000;2023-04-25T00:43:53;5.93;;;1.60;;
10805;SDS011;5455;53.224;6.000;2023-04-25T00:46:21;10.07;;;2.07;;
10805;SDS011;5455;53.224;6.000;2023-04-25T00:48:48;8.53;;;1.70;;
10805;SDS011;5455;53.224;6.000;2023-04-25T00:51:19;6.77;;;1.73;;
10805;SDS011;5455;53.224;6.000;2023-04-25T00:53:48;8.03;;;1.57;;
10805;SDS011;5455;53.224;6.000;2023-04-25T00:56:17;8.87;;;1.70;;
10805;SDS011;5455;53.224;6.000;2023-04-25T00:58:44;10.00;;;1.70;;
10805;SDS011;5455;53.224;6.000;2023-04-25T01:01:12;7.53;;;2.10;;
10805;SDS011;5455;53.224;6.000;2023-04-25T01:03:40;8.87;;;1.90;;
10805;SDS011;5455;53.224;6.000;2023-04-25T01:06:08;6.07;;;1.37;;
10805;SDS011;5455;53.224;6.000;2023-04-25T01:08:39;11.40;;;1.70;;
10805;SDS011;5455;53.224;6.000;2023-04-25T01:11:06;9.37;;;1.70;;
10805;SDS011;5455;53.224;6.000;2023-04-25T01:13:34;8.17;;;1.60;;
10805;SDS011;5455;53.224;6.000;2023-04-25T01:16:02;9.30;;;1.30;;
10805;SDS011;5455;53.224;6.000;2023-04-25T01:18:30;11.53;;;1.47;;
10805;SDS011;5455;53.224;6.000;2023-04-25T01:21:08;5.10;;;1.63;;
10805;SDS011;5455;53.224;6.000;2023-04-25T01:23:38;7.90;;;1.30;;
10805;SDS011;5455;53.224;6.000;2023-04-25T01:26:08;6.23;;;1.40;;
10805;SDS011;5455;53.224;6.000;2023-04-25T01:28:38;7.70;;;1.70;;
10805;SDS011;5455;53.224;6.000;2023-04-25T01:31:10;9.73;;;1.77;;
10805;SDS011;5455;53.224;6.000;2023-04-25T01:33:39;4.73;;;1.40;;
10805;SDS011;5455;53.224;6.000;2023-04-25T01:36:06;5.70;;;0.90;;
10805;SDS011;5455;53.224;6.000;2023-04-25T01:38:34;7.20;;;1.07;;
10805;SDS011;5455;53.224;6.000;2023-04-25T01:41:01;5.10;;;1.03;;
10805;SDS011;5455;53.224;6.000;2023-04-25T01:43:29;7.50;;;1.00;;
10805;SDS011;5455;53.224;6.000;2023-04-25T01:45:56;5.50;;;1.10;;
10805;SDS011;5455;53.224;6.000;2023-04-25T01:48:24;3.33;;;0.90;;
10805;SDS011;5455;53.224;6.000;2023-04-25T01:50:50;3.73;;;1.00;;
10805;SDS011;5455;53.224;6.000;2023-04-25T01:53:18;4.87;;;1.50;;
10805;SDS011;5455;53.224;6.000;2023-04-25T01:55:45;4.17;;;1.27;;
10805;SDS011;5455;53.224;6.000;2023-04-25T01:58:14;4.73;;;1.53;;
10805;SDS011;5455;53.224;6.000;2023-04-25T02:01:01;4.40;;;1.00;;
10805;SDS011;5455;53.224;6.000;2023-04-25T02:03:34;7.33;;;1.17;;
10805;SDS011;5455;53.224;6.000;2023-04-25T02:06:07;5.63;;;1.07;;
10805;SDS011;5455;53.224;6.000;2023-04-25T02:08:37;6.10;;;1.93;;
10805;SDS011;5455;53.224;6.000;2023-04-25T02:11:04;6.43;;;1.87;;
10805;SDS011;5455;53.224;6.000;2023-04-25T02:13:39;6.40;;;1.10;;
10805;SDS011;5455;53.224;6.000;2023-04-25T02:16:23;6.23;;;1.30;;
10805;SDS011;5455;53.224;6.000;2023-04-25T02:18:52;7.33;;;1.40;;
10805;SDS011;5455;53.224;6.000;2023-04-25T02:21:19;8.70;;;1.63;;
10805;SDS011;5455;53.224;6.000;2023-04-25T02:23:46;9.27;;;1.33;;
10805;SDS011;5455;53.224;6.000;2023-04-25T02:26:15;5.27;;;1.27;;
10805;SDS011;5455;53.224;6.000;2023-04-25T02:28:42;5.03;;;1.57;;
10805;SDS011;5455;53.224;6.000;2023-04-25T02:31:09;5.93;;;1.20;;
10805;SDS011;5455;53.224;6.000;2023-04-25T02:33:36;6.00;;;1.80;;
10805;SDS011;5455;53.224;6.000;2023-04-25T02:36:05;5.20;;;1.00;;
10805;SDS011;5455;53.224;6.000;2023-04-25T02:38:32;3.80;;;1.23;;
10805;SDS011;5455;53.224;6.000;2023-04-25T02:40:59;4.20;;;0.87;;
10805;SDS011;5455;53.224;6.000;2023-04-25T02:43:26;4.47;;;1.00;;
10805;SDS011;5455;53.224;6.000;2023-04-25T02:45:54;3.67;;;0.60;;
10805;SDS011;5455;53.224;6.000;2023-04-25T02:48:21;4.43;;;0.97;;
10805;SDS011;5455;53.224;6.000;2023-04-25T02:50:47;5.63;;;1.00;;
10805;SDS011;5455;53.224;6.000;2023-04-25T02:53:14;3.47;;;1.00;;
10805;SDS011;5455;53.224;6.000;2023-04-25T02:55:46;3.97;;;0.57;;
10805;SDS011;5455;53.224;6.000;2023-04-25T02:58:14;8.17;;;1.13;;
10805;SDS011;5455;53.224;6.000;2023-04-25T03:00:48;7.10;;;1.20;;
10805;SDS011;5455;53.224;6.000;2023-04-25T03:03:16;7.03;;;1.17;;
10805;SDS011;5455;53.224;6.000;2023-04-25T03:05:49;5.53;;;1.10;;
10805;SDS011;5455;53.224;6.000;2023-04-25T03:08:21;4.03;;;0.90;;
10805;SDS011;5455;53.224;6.000;2023-04-25T03:10:49;3.80;;;1.10;;
10805;SDS011;5455;53.224;6.000;2023-04-25T03:13:18;5.80;;;1.10;;
10805;SDS011;5455;53.224;6.000;2023-04-25T03:15:45;3.60;;;1.13;;
10805;SDS011;5455;53.224;6.000;2023-04-25T03:18:12;8.30;;;1.23;;
10805;SDS011;5455;53.224;6.000;2023-04-25T03:20:39;8.70;;;1.53;;
10805;SDS011;5455;53.224;6.000;2023-04-25T03:23:08;5.07;;;1.20;;
10805;SDS011;5455;53.224;6.000;2023-04-25T03:25:36;2.23;;;0.93;;
10805;SDS011;5455;53.224;6.000;2023-04-25T03:28:03;4.63;;;1.00;;
10805;SDS011;5455;53.224;6.000;2023-04-25T03:30:31;5.10;;;1.47;;
10805;SDS011;5455;53.224;6.000;2023-04-25T03:32:58;4.10;;;1.20;;
10805;SDS011;5455;53.224;6.000;2023-04-25T03:35:26;8.27;;;1.60;;
10805;SDS011;5455;53.224;6.000;2023-04-25T03:37:53;7.07;;;1.27;;
10805;SDS011;5455;53.224;6.000;2023-04-25T03:40:26;6.50;;;1.43;;
10805;SDS011;5455;53.224;6.000;2023-04-25T03:43:07;6.67;;;1.13;;
10805;SDS011;5455;53.224;6.000;2023-04-25T03:45:35;8.17;;;1.50;;
10805;SDS011;5455;53.224;6.000;2023-04-25T03:48:02;10.10;;;1.60;;
10805;SDS011;5455;53.224;6.000;2023-04-25T03:50:30;6.03;;;1.50;;
10805;SDS011;5455;53.224;6.000;2023-04-25T03:52:57;3.50;;;1.27;;
10805;SDS011;5455;53.224;6.000;2023-04-25T03:55:27;5.67;;;1.47;;
10805;SDS011;5455;53.224;6.000;2023-04-25T03:57:54;4.97;;;1.13;;
10805;SDS011;5455;53.224;6.000;2023-04-25T04:00:21;5.33;;;1.30;;
10805;SDS011;5455;53.224;6.000;2023-04-25T04:02:51;5.20;;;1.10;;
10805;SDS011;5455;53.224;6.000;2023-04-25T04:05:18;4.97;;;1.33;;
10805;SDS011;5455;53.224;6.000;2023-04-25T04:07:53;4.80;;;1.30;;
10805;SDS011;5455;53.224;6.000;2023-04-25T04:10:21;4.67;;;1.30;;
10805;SDS011;5455;53.224;6.000;2023-04-25T04:12:48;7.63;;;1.13;;
10805;SDS011;5455;53.224;6.000;2023-04-25T04:15:16;6.33;;;1.67;;
10805;SDS011;5455;53.224;6.000;2023-04-25T04:17:45;6.93;;;1.37;;
10805;SDS011;5455;53.224;6.000;2023-04-25T04:20:13;4.53;;;1.10;;
10805;SDS011;5455;53.224;6.000;2023-04-25T04:22:40;5.47;;;1.10;;
10805;SDS011;5455;53.224;6.000;2023-04-25T04:25:11;7.10;;;1.47;;
10805;SDS011;5455;53.224;6.000;2023-04-25T04:28:07;9.13;;;1.30;;
10805;SDS011;5455;53.224;6.000;2023-04-25T04:30:39;5.93;;;1.10;;
10805;SDS011;5455;53.224;6.000;2023-04-25T04:33:08;3.10;;;1.10;;
10805;SDS011;5455;53.224;6.000;2023-04-25T04:35:36;7.77;;;1.10;;
10805;SDS011;5455;53.224;6.000;2023-04-25T04:38:03;4.23;;;1.10;;
10805;SDS011;5455;53.224;6.000;2023-04-25T04:40:33;10.43;;;1.40;;
10805;SDS011;5455;53.224;6.000;2023-04-25T04:43:11;2.83;;;1.00;;
10805;SDS011;5455;53.224;6.000;2023-04-25T04:46:02;3.80;;;1.10;;
10805;SDS011;5455;53.224;6.000;2023-04-25T04:48:49;3.67;;;0.90;;
10805;SDS011;5455;53.224;6.000;2023-04-25T04:51:36;5.30;;;1.07;;
10805;SDS011;5455;53.224;6.000;2023-04-25T04:54:14;3.57;;;0.97;;
10805;SDS011;5455;53.224;6.000;2023-04-25T04:57:07;9.37;;;1.13;;
10805;SDS011;5455;53.224;6.000;2023-04-25T04:59:49;5.40;;;1.00;;
10805;SDS011;5455;53.224;6.000;2023-04-25T05:02:37;4.30;;;0.80;;
10805;SDS011;5455;53.224;6.000;2023-04-25T05:05:31;6.97;;;1.20;;
10805;SDS011;5455;53.224;6.000;2023-04-25T05:08:11;4.97;;;1.30;;
10805;SDS011;5455;53.224;6.000;2023-04-25T05:11:04;5.20;;;0.93;;
10805;SDS011;5455;53.224;6.000;2023-04-25T05:13:49;6.03;;;0.97;;
10805;SDS011;5455;53.224;6.000;2023-04-25T05:16:34;8.27;;;1.00;;
10805;SDS011;5455;53.224;6.000;2023-04-25T05:19:20;8.10;;;1.30;;
10805;SDS011;5455;53.224;6.000;2023-04-25T05:21:53;7.47;;;1.07;;
10805;SDS011;5455;53.224;6.000;2023-04-25T05:24:30;6.03;;;1.07;;
10805;SDS011;5455;53.224;6.000;2023-04-25T05:27:16;5.47;;;1.40;;
10805;SDS011;5455;53.224;6.000;2023-04-25T05:30:06;3.80;;;1.17;;
10805;SDS011;5455;53.224;6.000;2023-04-25T05:32:53;4.17;;;0.87;;
10805;SDS011;5455;53.224;6.000;2023-04-25T05:35:20;4.77;;;1.00;;
10805;SDS011;5455;53.224;6.000;2023-04-25T05:37:49;3.73;;;1.20;;
10805;SDS011;5455;53.224;6.000;2023-04-25T05:40:19;5.10;;;0.90;;
10805;SDS011;5455;53.224;6.000;2023-04-25T05:42:56;4.30;;;1.27;;
10805;SDS011;5455;53.224;6.000;2023-04-25T05:45:42;3.03;;;0.83;;
10805;SDS011;5455;53.224;6.000;2023-04-25T05:48:27;3.90;;;1.00;;
10805;SDS011;5455;53.224;6.000;2023-04-25T05:51:17;4.73;;;1.07;;
10805;SDS011;5455;53.224;6.000;2023-04-25T05:54:11;1.63;;;0.50;;
10805;SDS011;5455;53.224;6.000;2023-04-25T05:56:39;4.57;;;0.60;;
10805;SDS011;5455;53.224;6.000;2023-04-25T05:59:06;2.00;;;0.40;;
10805;SDS011;5455;53.224;6.000;2023-04-25T06:01:33;2.73;;;0.40;;
10805;SDS011;5455;53.224;6.000;2023-04-25T06:04:00;4.27;;;0.57;;
10805;SDS011;5455;53.224;6.000;2023-04-25T06:06:28;3.73;;;0.60;;
10805;SDS011;5455;53.224;6.000;2023-04-25T06:08:58;2.77;;;0.80;;
10805;SDS011;5455;53.224;6.000;2023-04-25T06:11:25;2.37;;;0.77;;
10805;SDS011;5455;53.224;6.000;2023-04-25T06:13:52;3.50;;;0.60;;
10805;SDS011;5455;53.224;6.000;2023-04-25T06:16:19;3.97;;;0.50;;
10805;SDS011;5455;53.224;6.000;2023-04-25T06:18:46;3.47;;;0.83;;
10805;SDS011;5455;53.224;6.000;2023-04-25T06:21:14;3.40;;;1.10;;
10805;SDS011;5455;53.224;6.000;2023-04-25T06:23:41;3.17;;;0.73;;
10805;SDS011;5455;53.224;6.000;2023-04-25T06:26:11;3.17;;;0.90;;
10805;SDS011;5455;53.224;6.000;2023-04-25T06:28:41;2.80;;;0.53;;
10805;SDS011;5455;53.224;6.000;2023-04-25T06:31:08;5.30;;;1.03;;
10805;SDS011;5455;53.224;6.000;2023-04-25T06:33:35;3.53;;;0.70;;
10805;SDS011;5455;53.224;6.000;2023-04-25T06:36:03;4.77;;;0.80;;
10805;SDS011;5455;53.224;6.000;2023-04-25T06:38:31;3.20;;;0.70;;
10805;SDS011;5455;53.224;6.000;2023-04-25T06:40:58;2.87;;;0.80;;
10805;SDS011;5455;53.224;6.000;2023-04-25T06:43:28;5.83;;;0.73;;
10805;SDS011;5455;53.224;6.000;2023-04-25T06:46:23;5.77;;;1.00;;
10805;SDS011;5455;53.224;6.000;2023-04-25T06:48:50;5.17;;;0.93;;
10805;SDS011;5455;53.224;6.000;2023-04-25T06:51:18;4.80;;;0.70;;
10805;SDS011;5455;53.224;6.000;2023-04-25T06:53:49;3.23;;;0.60;;
10805;SDS011;5455;53.224;6.000;2023-04-25T06:56:25;2.87;;;0.53;;
10805;SDS011;5455;53.224;6.000;2023-04-25T06:58:59;1.07;;;0.37;;
10805;SDS011;5455;53.224;6.000;2023-04-25T07:01:32;0.77;;;0.40;;
10805;SDS011;5455;53.224;6.000;2023-04-25T07:04:03;2.57;;;0.33;;
10805;SDS011;5455;53.224;6.000;2023-04-25T07:06:32;2.03;;;0.40;;
10805;SDS011;5455;53.224;6.000;2023-04-25T07:08:59;5.20;;;0.37;;
10805;SDS011;5455;53.224;6.000;2023-04-25T07:11:27;1.80;;;0.23;;
10805;SDS011;5455;53.224;6.000;2023-04-25T07:13:55;2.67;;;0.60;;
10805;SDS011;5455;53.224;6.000;2023-04-25T07:16:22;2.70;;;0.70;;
10805;SDS011;5455;53.224;6.000;2023-04-25T07:18:50;2.20;;;0.80;;
10805;SDS011;5455;53.224;6.000;2023-04-25T07:21:18;1.77;;;0.50;;
10805;SDS011;5455;53.224;6.000;2023-04-25T07:23:46;3.50;;;0.57;;
10805;SDS011;5455;53.224;6.000;2023-04-25T07:26:17;3.23;;;0.73;;
10805;SDS011;5455;53.224;6.000;2023-04-25T07:29:04;1.87;;;0.50;;
10805;SDS011;5455;53.224;6.000;2023-04-25T07:31:31;5.03;;;0.60;;
10805;SDS011;5455;53.224;6.000;2023-04-25T07:33:58;2.93;;;0.87;;
10805;SDS011;5455;53.224;6.000;2023-04-25T07:36:27;4.03;;;0.87;;
10805;SDS011;5455;53.224;6.000;2023-04-25T07:38:54;1.87;;;0.70;;
10805;SDS011;5455;53.224;6.000;2023-04-25T07:41:22;6.60;;;1.20;;
10805;SDS011;5455;53.224;6.000;2023-04-25T07:43:49;4.37;;;0.87;;
10805;SDS011;5455;53.224;6.000;2023-04-25T07:46:16;4.10;;;1.43;;
10805;SDS011;5455;53.224;6.000;2023-04-25T07:48:43;2.40;;;0.77;;
10805;SDS011;5455;53.224;6.000;2023-04-25T07:51:10;3.53;;;0.73;;
10805;SDS011;5455;53.224;6.000;2023-04-25T07:53:39;4.77;;;1.27;;
10805;SDS011;5455;53.224;6.000;2023-04-25T07:56:11;4.23;;;0.90;;
10805;SDS011;5455;53.224;6.000;2023-04-25T07:58:41;1.73;;;0.70;;
10805;SDS011;5455;53.224;6.000;2023-04-25T08:01:11;7.00;;;0.60;;
10805;SDS011;5455;53.224;6.000;2023-04-25T08:03:38;1.67;;;0.47;;
10805;SDS011;5455;53.224;6.000;2023-04-25T08:06:13;3.13;;;0.80;;
10805;SDS011;5455;53.224;6.000;2023-04-25T08:08:52;2.97;;;0.57;;
10805;SDS011;5455;53.224;6.000;2023-04-25T08:11:22;4.60;;;0.60;;
10805;SDS011;5455;53.224;6.000;2023-04-25T08:13:50;3.47;;;0.40;;
10805;SDS011;5455;53.224;6.000;2023-04-25T08:16:17;1.90;;;0.70;;
10805;SDS011;5455;53.224;6.000;2023-04-25T08:18:45;3.10;;;0.70;;
10805;SDS011;5455;53.224;6.000;2023-04-25T08:21:12;4.03;;;0.77;;
10805;SDS011;5455;53.224;6.000;2023-04-25T08:23:40;3.10;;;0.50;;
10805;SDS011;5455;53.224;6.000;2023-04-25T08:26:11;3.87;;;0.90;;
10805;SDS011;5455;53.224;6.000;2023-04-25T08:28:41;3.10;;;0.70;;
10805;SDS011;5455;53.224;6.000;2023-04-25T08:31:08;3.73;;;0.60;;
10805;SDS011;5455;53.224;6.000;2023-04-25T08:33:46;5.73;;;0.90;;
10805;SDS011;5455;53.224;6.000;2023-04-25T08:36:36;4.43;;;0.83;;
10805;SDS011;5455;53.224;6.000;2023-04-25T08:39:38;6.53;;;1.07;;
10805;SDS011;5455;53.224;6.000;2023-04-25T08:42:26;6.10;;;1.23;;
10805;SDS011;5455;53.224;6.000;2023-04-25T08:44:55;3.30;;;0.83;;
10805;SDS011;5455;53.224;6.000;2023-04-25T08:47:28;5.53;;;1.00;;
10805;SDS011;5455;53.224;6.000;2023-04-25T08:49:56;4.97;;;1.17;;
10805;SDS011;5455;53.224;6.000;2023-04-25T08:52:27;3.43;;;0.70;;
10805;SDS011;5455;53.224;6.000;2023-04-25T08:54:57;3.53;;;1.07;;
10805;SDS011;5455;53.224;6.000;2023-04-25T08:57:28;5.30;;;0.90;;
10805;SDS011;5455;53.224;6.000;2023-04-25T08:59:56;4.43;;;0.90;;
10805;SDS011;5455;53.224;6.000;2023-04-25T09:02:24;5.47;;;0.90;;
10805;SDS011;5455;53.224;6.000;2023-04-25T09:04:52;5.27;;;0.83;;
10805;SDS011;5455;53.224;6.000;2023-04-25T09:07:24;2.77;;;0.60;;
10805;SDS011;5455;53.224;6.000;2023-04-25T09:09:53;5.43;;;0.93;;
10805;SDS011;5455;53.224;6.000;2023-04-25T09:12:21;3.77;;;0.73;;
10805;SDS011;5455;53.224;6.000;2023-04-25T09:18:06;4.23;;;0.70;;
10805;SDS011;5455;53.224;6.000;2023-04-25T09:20:41;2.80;;;0.67;;
10805;SDS011;5455;53.224;6.000;2023-04-25T09:23:13;4.80;;;0.83;;
10805;SDS011;5455;53.224;6.000;2023-04-25T09:25:41;4.13;;;1.07;;
10805;SDS011;5455;53.224;6.000;2023-04-25T09:28:10;3.43;;;0.90;;
10805;SDS011;5455;53.224;6.000;2023-04-25T09:30:37;4.73;;;1.03;;
10805;SDS011;5455;53.224;6.000;2023-04-25T09:33:29;4.53;;;0.80;;
10805;SDS011;5455;53.224;6.000;2023-04-25T09:36:02;4.77;;;0.80;;
10805;SDS011;5455;53.224;6.000;2023-04-25T09:38:57;4.00;;;0.60;;
10805;SDS011;5455;53.224;6.000;2023-04-25T09:41:30;3.20;;;0.90;;
10805;SDS011;5455;53.224;6.000;2023-04-25T09:44:00;4.90;;;1.20;;
10805;SDS011;5455;53.224;6.000;2023-04-25T09:46:35;7.17;;;1.30;;
10805;SDS011;5455;53.224;6.000;2023-04-25T09:49:12;7.30;;;1.00;;
10805;SDS011;5455;53.224;6.000;2023-04-25T09:52:15;2.87;;;0.80;;
10805;SDS011;5455;53.224;6.000;2023-04-25T09:55:10;3.23;;;0.80;;
10805;SDS011;5455;53.224;6.000;2023-04-25T09:57:38;7.03;;;0.97;;
10805;SDS011;5455;53.224;6.000;2023-04-25T10:00:07;7.97;;;0.90;;
10805;SDS011;5455;53.224;6.000;2023-04-25T10:02:45;8.00;;;1.20;;
10805;SDS011;5455;53.224;6.000;2023-04-25T10:05:34;6.90;;;1.03;;
10805;SDS011;5455;53.224;6.000;2023-04-25T10:08:02;5.73;;;1.00;;
10805;SDS011;5455;53.224;6.000;2023-04-25T10:10:33;1.87;;;0.57;;
10805;SDS011;5455;53.224;6.000;2023-04-25T10:13:03;3.47;;;0.70;;
10805;SDS011;5455;53.224;6.000;2023-04-25T10:15:35;5.30;;;0.80;;
10805;SDS011;5455;53.224;6.000;2023-04-25T10:18:06;3.27;;;0.60;;
10805;SDS011;5455;53.224;6.000;2023-04-25T10:20:33;4.30;;;0.83;;
10805;SDS011;5455;53.224;6.000;2023-04-25T10:23:06;6.50;;;0.90;;
10805;SDS011;5455;53.224;6.000;2023-04-25T10:25:39;6.37;;;0.87;;
10805;SDS011;5455;53.224;6.000;2023-04-25T10:28:08;4.77;;;1.13;;
10805;SDS011;5455;53.224;6.000;2023-04-25T10:30:34;2.30;;;0.70;;
10805;SDS011;5455;53.224;6.000;2023-04-25T10:33:01;3.47;;;0.90;;
10805;SDS011;5455;53.224;6.000;2023-04-25T10:35:44;6.07;;;1.10;;
10805;SDS011;5455;53.224;6.000;2023-04-25T10:38:13;4.80;;;0.90;;
10805;SDS011;5455;53.224;6.000;2023-04-25T10:40:41;3.57;;;0.83;;
10805;SDS011;5455;53.224;6.000;2023-04-25T10:45:59;3.60;;;1.00;;
10805;SDS011;5455;53.224;6.000;2023-04-25T10:51:10;5.00;;;1.07;;
10805;SDS011;5455;53.224;6.000;2023-04-25T10:53:38;5.90;;;0.87;;
10805;SDS011;5455;53.224;6.000;2023-04-25T10:56:12;3.63;;;0.80;;
10805;SDS011;5455;53.224;6.000;2023-04-25T10:58:44;3.13;;;0.70;;
10805;SDS011;5455;53.224;6.000;2023-04-25T11:01:13;5.07;;;0.97;;
10805;SDS011;5455;53.224;6.000;2023-04-25T11:03:42;4.53;;;0.70;;
10805;SDS011;5455;53.224;6.000;2023-04-25T11:06:22;4.87;;;0.70;;
10805;SDS011;5455;53.224;6.000;2023-04-25T11:08:54;3.40;;;0.70;;
10805;SDS011;5455;53.224;6.000;2023-04-25T11:11:21;3.70;;;0.77;;
10805;SDS011;5455;53.224;6.000;2023-04-25T11:13:48;4.20;;;0.93;;
10805;SDS011;5455;53.224;6.000;2023-04-25T11:16:16;4.80;;;0.80;;
10805;SDS011;5455;53.224;6.000;2023-04-25T11:18:56;3.20;;;0.70;;
10805;SDS011;5455;53.224;6.000;2023-04-25T11:21:25;2.00;;;0.70;;
10805;SDS011;5455;53.224;6.000;2023-04-25T11:23:56;0.90;;;0.30;;
10805;SDS011;5455;53.224;6.000;2023-04-25T11:26:24;3.37;;;0.63;;
10805;SDS011;5455;53.224;6.000;2023-04-25T11:28:51;3.87;;;0.50;;
10805;SDS011;5455;53.224;6.000;2023-04-25T11:31:21;4.90;;;0.60;;
10805;SDS011;5455;53.224;6.000;2023-04-25T11:33:49;3.80;;;0.57;;
10805;SDS011;5455;53.224;6.000;2023-04-25T11:36:16;2.50;;;1.03;;
10805;SDS011;5455;53.224;6.000;2023-04-25T11:38:43;1.47;;;0.40;;
10805;SDS011;5455;53.224;6.000;2023-04-25T11:41:10;1.70;;;0.50;;
10805;SDS011;5455;53.224;6.000;2023-04-25T11:43:38;2.07;;;0.47;;
10805;SDS011;5455;53.224;6.000;2023-04-25T11:46:08;5.47;;;0.90;;
10805;SDS011;5455;53.224;6.000;2023-04-25T11:48:41;2.70;;;0.80;;
10805;SDS011;5455;53.224;6.000;2023-04-25T11:51:09;2.40;;;0.67;;
10805;SDS011;5455;53.224;6.000;2023-04-25T11:53:38;3.50;;;0.90;;
10805;SDS011;5455;53.224;6.000;2023-04-25T11:56:10;5.57;;;0.87;;
10805;SDS011;5455;53.224;6.000;2023-04-25T11:58:57;2.60;;;0.60;;
10805;SDS011;5455;53.224;6.000;2023-04-25T12:01:29;4.80;;;0.93;;
10805;SDS011;5455;53.224;6.000;2023-04-25T12:04:14;5.57;;;0.80;;
10805;SDS011;5455;53.224;6.000;2023-04-25T12:06:47;3.17;;;0.80;;
10805;SDS011;5455;53.224;6.000;2023-04-25T12:09:20;8.20;;;1.13;;
10805;SDS011;5455;53.224;6.000;2023-04-25T12:11:54;4.47;;;0.87;;
10805;SDS011;5455;53.224;6.000;2023-04-25T12:14:26;3.20;;;0.90;;
10805;SDS011;5455;53.224;6.000;2023-04-25T12:16:56;2.67;;;0.77;;
10805;SDS011;5455;53.224;6.000;2023-04-25T12:19:25;2.30;;;0.67;;
10805;SDS011;5455;53.224;6.000;2023-04-25T12:21:53;2.50;;;0.60;;
10805;SDS011;5455;53.224;6.000;2023-04-25T12:24:25;1.57;;;0.60;;
10805;SDS011;5455;53.224;6.000;2023-04-25T12:27:04;3.90;;;0.60;;
10805;SDS011;5455;53.224;6.000;2023-04-25T12:29:33;3.93;;;0.60;;
10805;SDS011;5455;53.224;6.000;2023-04-25T12:32:15;2.53;;;0.70;;
10805;SDS011;5455;53.224;6.000;2023-04-25T12:34:43;5.33;;;1.37;;
10805;SDS011;5455;53.224;6.000;2023-04-25T12:37:10;6.37;;;0.80;;
10805;SDS011;5455;53.224;6.000;2023-04-25T12:39:37;8.20;;;1.47;;
10805;SDS011;5455;53.224;6.000;2023-04-25T12:42:04;3.07;;;0.77;;
10805;SDS011;5455;53.224;6.000;2023-04-25T12:44:35;6.10;;;0.80;;
10805;SDS011;5455;53.224;6.000;2023-04-25T12:47:03;3.73;;;0.87;;
10805;SDS011;5455;53.224;6.000;2023-04-25T12:49:30;3.13;;;0.93;;
10805;SDS011;5455;53.224;6.000;2023-04-25T12:51:58;4.17;;;0.90;;
10805;SDS011;5455;53.224;6.000;2023-04-25T12:54:25;4.53;;;0.57;;
10805;SDS011;5455;53.224;6.000;2023-04-25T12:56:52;3.27;;;0.83;;
10805;SDS011;5455;53.224;6.000;2023-04-25T12:59:20;2.07;;;0.70;;
10805;SDS011;5455;53.224;6.000;2023-04-25T13:01:47;3.47;;;0.70;;
10805;SDS011;5455;53.224;6.000;2023-04-25T13:04:14;2.77;;;0.90;;
10805;SDS011;5455;53.224;6.000;2023-04-25T13:06:43;6.37;;;0.90;;
10805;SDS011;5455;53.224;6.000;2023-04-25T13:09:10;3.07;;;0.80;;
10805;SDS011;5455;53.224;6.000;2023-04-25T13:11:39;6.93;;;0.97;;
10805;SDS011;5455;53.224;6.000;2023-04-25T13:14:07;6.63;;;1.00;;
10805;SDS011;5455;53.224;6.000;2023-04-25T13:16:34;4.53;;;0.77;;
10805;SDS011;5455;53.224;6.000;2023-04-25T13:19:01;3.10;;;0.77;;
10805;SDS011;5455;53.224;6.000;2023-04-25T13:21:29;3.47;;;0.90;;
10805;SDS011;5455;53.224;6.000;2023-04-25T13:23:58;3.90;;;0.90;;
10805;SDS011;5455;53.224;6.000;2023-04-25T13:26:25;5.90;;;0.83;;
10805;SDS011;5455;53.224;6.000;2023-04-25T13:28:52;2.97;;;1.07;;
10805;SDS011;5455;53.224;6.000;2023-04-25T13:31:19;3.23;;;0.80;;
10805;SDS011;5455;53.224;6.000;2023-04-25T13:33:47;6.83;;;1.10;;
10805;SDS011;5455;53.224;6.000;2023-04-25T13:36:15;5.13;;;1.00;;
10805;SDS011;5455;53.224;6.000;2023-04-25T13:38:41;1.73;;;0.87;;
10805;SDS011;5455;53.224;6.000;2023-04-25T13:41:10;2.73;;;0.80;;
10805;SDS011;5455;53.224;6.000;2023-04-25T13:43:42;5.83;;;0.70;;
10805;SDS011;5455;53.224;6.000;2023-04-25T13:46:09;2.13;;;0.40;;
10805;SDS011;5455;53.224;6.000;2023-04-25T13:48:56;3.67;;;0.80;;
10805;SDS011;5455;53.224;6.000;2023-04-25T13:51:35;3.17;;;0.80;;
10805;SDS011;5455;53.224;6.000;2023-04-25T13:54:02;2.43;;;0.70;;
10805;SDS011;5455;53.224;6.000;2023-04-25T13:56:29;1.03;;;0.50;;
10805;SDS011;5455;53.224;6.000;2023-04-25T13:58:56;3.50;;;0.63;;
10805;SDS011;5455;53.224;6.000;2023-04-25T14:01:24;1.77;;;0.33;;
10805;SDS011;5455;53.224;6.000;2023-04-25T14:03:53;1.63;;;0.37;;
10805;SDS011;5455;53.224;6.000;2023-04-25T14:06:20;2.63;;;0.60;;
10805;SDS011;5455;53.224;6.000;2023-04-25T14:08:52;2.67;;;0.50;;
10805;SDS011;5455;53.224;6.000;2023-04-25T14:11:20;3.23;;;0.50;;
10805;SDS011;5455;53.224;6.000;2023-04-25T14:13:47;5.13;;;0.80;;
10805;SDS011;5455;53.224;6.000;2023-04-25T14:16:16;1.63;;;0.50;;
10805;SDS011;5455;53.224;6.000;2023-04-25T14:18:43;2.17;;;0.90;;
10805;SDS011;5455;53.224;6.000;2023-04-25T14:21:10;4.57;;;0.67;;
10805;SDS011;5455;53.224;6.000;2023-04-25T14:23:37;5.53;;;0.80;;
10805;SDS011;5455;53.224;6.000;2023-04-25T14:26:04;2.30;;;0.80;;
10805;SDS011;5455;53.224;6.000;2023-04-25T14:28:31;3.63;;;0.90;;
10805;SDS011;5455;53.224;6.000;2023-04-25T14:30:58;4.07;;;0.80;;
10805;SDS011;5455;53.224;6.000;2023-04-25T14:33:26;1.87;;;0.80;;
10805;SDS011;5455;53.224;6.000;2023-04-25T14:35:54;5.40;;;0.90;;
10805;SDS011;5455;53.224;6.000;2023-04-25T14:38:21;2.53;;;0.63;;
10805;SDS011;5455;53.224;6.000;2023-04-25T14:40:49;4.43;;;0.83;;
10805;SDS011;5455;53.224;6.000;2023-04-25T14:43:16;5.57;;;1.00;;
10805;SDS011;5455;53.224;6.000;2023-04-25T14:45:44;4.43;;;1.10;;
10805;SDS011;5455;53.224;6.000;2023-04-25T14:48:11;3.10;;;0.80;;
10805;SDS011;5455;53.224;6.000;2023-04-25T14:50:38;4.73;;;0.60;;
10805;SDS011;5455;53.224;6.000;2023-04-25T14:53:05;4.00;;;1.20;;
10805;SDS011;5455;53.224;6.000;2023-04-25T14:55:32;1.97;;;0.50;;
10805;SDS011;5455;53.224;6.000;2023-04-25T14:57:59;4.23;;;0.80;;
10805;SDS011;5455;53.224;6.000;2023-04-25T15:00:26;4.40;;;0.70;;
10805;SDS011;5455;53.224;6.000;2023-04-25T15:02:53;4.00;;;0.60;;
10805;SDS011;5455;53.224;6.000;2023-04-25T15:05:20;4.73;;;1.30;;
10805;SDS011;5455;53.224;6.000;2023-04-25T15:07:47;5.07;;;1.10;;
10805;SDS011;5455;53.224;6.000;2023-04-25T15:10:14;6.10;;;0.80;;
10805;SDS011;5455;53.224;6.000;2023-04-25T15:12:42;1.87;;;0.30;;
10805;SDS011;5455;53.224;6.000;2023-04-25T15:15:13;4.33;;;0.63;;
10805;SDS011;5455;53.224;6.000;2023-04-25T15:17:51;2.67;;;0.60;;
10805;SDS011;5455;53.224;6.000;2023-04-25T15:20:18;3.57;;;0.40;;
10805;SDS011;5455;53.224;6.000;2023-04-25T15:22:45;2.53;;;0.40;;
10805;SDS011;5455;53.224;6.000;2023-04-25T15:25:12;1.33;;;0.60;;
10805;SDS011;5455;53.224;6.000;2023-04-25T15:27:39;3.00;;;0.50;;
10805;SDS011;5455;53.224;6.000;2023-04-25T15:30:11;5.77;;;0.90;;
10805;SDS011;5455;53.224;6.000;2023-04-25T15:32:45;5.67;;;1.10;;